Latest Weather Observations for Albany Airport

IDW60801

Issued at 12:03 am WST Friday 31 July 2015 (issued every 30 minutes, with the page automatically refreshed every 10 minutes)

About weather observations | Map of weather stations | Latest weather observations for WA | Other Formats
Station Details ID: 009999 Name: ALBANY AIRPORT Lat: -34.94 Lon: 117.82 Height: 68.4 m
Data from the previous 72 hours. | See also: Recent months at Albany Airport
Date/Time
WST
Temp
°C
App
Temp
°C
Dew
Point
Rel
Hum
%
Delta-T
°C
Wind Press
QNH
hPa
Press
MSL
hPa
Rain
since 9 am
mm
Dir
 
Spd
km/h
Gust
km/h
Spd
kts
Gust
kts
31/12:00am 13.5 13.8 13.3 99 0.1 E 4 6 2 3 1014.3 1014.5 68.2
 
Date/Time
WST
Temp
°C
App
Temp
°C
Dew
Point
Rel
Hum
%
Delta-T
°C
Wind Press
QNH
hPa
Press
MSL
hPa
Rain
since 9 am
mm
Dir
 
Spd
km/h
Gust
km/h
Spd
kts
Gust
kts
30/11:52pm 13.5 13.4 13.3 99 0.1 E 6 9 3 5 1014.3 - 68.2
30/11:30pm 13.6 13.5 13.4 99 0.1 E 6 7 3 4 1014.8 - 68.2
30/11:00pm 13.6 12.6 13.4 99 0.1 ESE 11 13 6 7 1015.1 - 68.2
30/10:56pm 13.7 13.0 13.3 97 0.2 SE 9 11 5 6 1015.2 - 68.2
30/10:48pm 13.6 13.5 13.4 99 0.1 SSE 6 7 3 4 1015.6 - 68.2
30/10:30pm 13.6 13.3 13.4 99 0.1 E 7 11 4 6 1015.6 - 67.8
30/10:25pm 13.6 13.0 13.4 99 0.1 ENE 9 11 5 6 1015.7 - 67.8
30/10:12pm 13.6 13.3 13.4 99 0.1 E 7 11 4 6 1015.7 - 67.4
30/10:00pm 13.6 13.0 13.4 99 0.1 E 9 13 5 7 1015.7 - 67.2
30/09:56pm 13.7 13.0 13.3 97 0.2 ENE 9 13 5 7 1015.9 - 67.0
30/09:31pm 13.8 13.2 13.4 97 0.2 ENE 9 15 5 8 1016.3 - 65.6
30/09:30pm 13.8 13.2 13.4 97 0.2 ENE 9 15 5 8 1016.3 - 65.6
30/09:22pm 13.8 12.4 13.4 97 0.2 ENE 13 19 7 10 1016.3 - 65.0
30/09:11pm 13.8 12.4 13.4 97 0.2 E 13 17 7 9 1016.4 - 64.6
30/09:00pm 13.8 12.0 13.4 97 0.2 E 15 19 8 10 1016.5 1016.7 64.2
30/08:30pm 13.9 12.1 13.4 97 0.3 E 15 20 8 11 1016.8 - 64.2
30/08:00pm 13.8 12.4 13.4 97 0.2 E 13 17 7 9 1017.1 - 64.0
30/07:46pm 13.7 12.3 13.3 97 0.2 E 13 17 7 9 1017.4 - 64.0
30/07:30pm 13.7 12.3 13.3 97 0.2 E 13 17 7 9 1017.6 - 64.0
30/07:00pm 13.7 12.3 13.3 97 0.2 E 13 17 7 9 1017.9 - 63.8
30/06:54pm 13.7 12.3 13.3 97 0.2 E 13 17 7 9 1018.1 - 63.8
30/06:30pm 13.7 12.6 13.2 97 0.3 E 11 15 6 8 1018.2 - 63.4
30/06:00pm 13.8 12.7 13.1 96 0.4 E 11 15 6 8 1018.0 1018.2 62.0
30/05:57pm 13.8 12.3 13.1 96 0.4 E 13 17 7 9 1018.0 - 62.0
30/05:38pm 13.8 12.6 12.9 94 0.5 E 11 15 6 8 1018.1 - 61.8
30/05:30pm 13.9 12.3 12.8 93 0.6 E 13 17 7 9 1018.1 - 61.8
30/05:00pm 14.1 12.5 12.8 92 0.7 E 13 17 7 9 1018.3 - 61.8
30/04:39pm 14.2 11.9 12.9 92 0.7 ENE 17 22 9 12 1018.2 - 61.8
30/04:30pm 14.2 11.9 12.9 92 0.7 ENE 17 20 9 11 1018.2 - 61.8
30/04:00pm 14.6 11.7 13.0 90 0.9 ENE 20 24 11 13 1018.3 - 61.8
30/03:42pm 14.1 11.8 13.0 93 0.6 ENE 17 24 9 13 1018.7 - 61.8
30/03:30pm 14.3 12.0 13.0 92 0.7 ENE 17 22 9 12 1018.7 - 61.8
30/03:14pm 14.8 12.8 12.6 87 1.2 ENE 15 20 8 11 1018.9 - 61.8
30/03:00pm 14.9 12.8 12.5 85 1.3 ENE 15 19 8 10 1019.3 1019.5 0.0
30/02:30pm 15.2 13.5 12.5 84 1.5 ENE 13 17 7 9 1019.5 - 61.8
30/02:13pm 15.1 12.9 12.2 83 1.6 ENE 15 19 8 10 1019.7 - 61.8
30/02:00pm 15.2 13.5 12.3 83 1.6 E 13 17 7 9 1019.9 - 0.0
30/01:47pm 15.3 13.2 12.4 83 1.6 E 15 20 8 11 1020.0 - 61.8
30/01:30pm 15.4 13.2 12.1 81 1.8 ENE 15 20 8 11 1020.2 - 61.8
30/01:00pm 14.9 11.9 11.9 82 1.6 ENE 19 22 10 12 1020.8 - 61.8
30/12:30pm 15.0 12.4 12.0 82 1.6 ENE 17 22 9 12 1021.1 - 33.6
30/12:09pm 14.5 11.8 11.7 83 1.5 ENE 17 22 9 12 1021.8 - 0.0
30/12:00pm 14.5 11.7 11.5 82 1.6 ENE 17 20 9 11 1021.9 1022.1 0.0
30/11:30am 14.7 11.8 10.9 78 2.0 E 17 20 9 11 1021.9 - 0.0
30/11:00am 14.5 11.6 10.9 79 1.9 ENE 17 20 9 11 1022.5 - 0.0
30/10:30am 14.2 11.6 10.6 79 1.9 E 15 17 8 9 1022.7 - 0.0
30/10:00am 13.7 11.4 10.6 81 1.6 E 13 19 7 10 1022.9 - 0.0
30/09:30am 13.3 11.4 10.6 84 1.4 ENE 11 13 6 7 1023.1 - 0.0
30/09:00am 13.2 11.6 10.3 82 1.5 E 9 13 5 7 1022.9 1023.1 2.8
30/08:30am 12.2 11.2 10.3 88 1.0 ENE 6 7 3 4 1022.9 - 2.8
30/08:00am 12.0 10.5 10.4 90 0.8 NE 9 9 5 5 1022.9 - 2.8
30/07:30am 11.2 9.9 10.0 92 0.6 ENE 7 9 4 5 1022.5 - 2.8
30/07:00am 11.5 10.2 9.9 90 0.8 NE 7 11 4 6 1022.1 - 2.8
30/06:30am 11.7 10.4 10.1 90 0.8 NE 7 11 4 6 1021.8 - 2.8
30/06:00am 12.3 9.7 9.5 83 1.4 E 13 17 7 9 1021.3 1021.5 2.8
30/05:30am 12.2 9.7 9.8 85 1.2 ESE 13 20 7 11 1021.3 - 2.8
30/05:00am 12.3 9.4 9.5 83 1.4 ESE 15 19 8 10 1021.1 - 2.8
30/04:30am 12.0 9.6 10.2 89 0.9 ESE 13 15 7 8 1021.0 - 2.8
30/04:00am 11.9 9.9 10.3 90 0.8 ESE 11 13 6 7 1021.2 - 2.8
30/03:30am 12.0 9.3 10.2 89 0.9 SE 15 20 8 11 1021.3 - 2.8
30/03:00am 11.9 9.0 10.9 94 0.5 SE 17 24 9 13 1021.3 1021.5 2.8
30/02:53am 11.9 8.6 10.9 94 0.5 SE 19 24 10 13 1021.1 - 2.8
30/02:40am 12.1 9.7 11.3 95 0.4 SSE 15 22 8 12 1021.2 - 2.8
30/02:39am 12.1 9.7 11.3 95 0.4 SSE 15 22 8 12 1021.2 - 2.8
30/02:30am 12.2 9.4 11.2 94 0.5 SSE 17 24 9 13 1021.0 - 2.8
30/02:00am 12.6 10.2 11.3 92 0.7 SSE 15 20 8 11 1020.8 - 2.8
30/01:30am 13.0 11.4 11.7 92 0.7 SSE 11 17 6 9 1020.8 - 2.8
30/01:00am 13.2 12.1 12.1 93 0.6 SSE 9 11 5 6 1020.7 - 2.8
30/12:46am 13.3 12.3 12.2 93 0.6 SSE 9 13 5 7 1020.7 - 2.8
30/12:30am 13.2 12.2 12.3 94 0.5 SSE 9 11 5 6 1020.5 - 2.8
30/12:02am 13.4 12.1 12.5 94 0.5 SSE 11 17 6 9 1020.2 - 2.8
30/12:00am 13.4 12.2 12.7 95 0.4 SSE 11 17 6 9 1020.2 1020.4 2.8
 
Date/Time
WST
Temp
°C
App
Temp
°C
Dew
Point
Rel
Hum
%
Delta-T
°C
Wind Press
QNH
hPa
Press
MSL
hPa
Rain
since 9 am
mm
Dir
 
Spd
km/h
Gust
km/h
Spd
kts
Gust
kts
29/11:47pm 13.6 12.8 12.9 95 0.4 SSE 9 15 5 8 1020.2 - 2.8
29/11:43pm 13.6 12.9 13.1 97 0.3 SSE 9 17 5 9 1020.3 - 2.8
29/11:30pm 13.6 13.2 13.1 97 0.3 S 7 9 4 5 1020.2 - 2.8
29/11:14pm 13.7 12.6 13.2 97 0.3 WSW 11 19 6 10 1020.1 - 2.8
29/11:00pm 13.0 12.2 12.8 99 0.1 W 9 11 5 6 1020.1 - 2.8
29/10:30pm 13.1 12.2 12.7 97 0.2 W 9 11 5 6 1019.8 - 2.8
29/10:00pm 13.6 12.5 13.2 97 0.2 WNW 11 13 6 7 1019.6 - 2.8
29/09:32pm 13.9 12.9 13.5 97 0.2 WNW 11 13 6 7 1019.6 - 2.8
29/09:30pm 13.9 12.9 13.5 97 0.2 WNW 11 13 6 7 1019.7 - 2.8
29/09:00pm 13.9 13.3 13.4 97 0.3 W 9 13 5 7 1019.4 1019.6 2.6
29/08:55pm 13.9 12.8 13.2 96 0.4 W 11 13 6 7 1019.4 - 2.6
29/08:30pm 13.9 12.5 13.4 97 0.3 WNW 13 17 7 9 1019.5 - 1.6
29/08:04pm 14.4 12.5 13.1 92 0.7 SW 15 22 8 12 1019.1 - 0.2
29/08:00pm 14.2 12.6 12.7 91 0.8 SW 13 17 7 9 1019.0 - 0.2
29/07:30pm 13.4 11.6 12.1 92 0.7 W 13 20 7 11 1018.8 - 0.0
29/07:00pm 12.5 10.9 11.6 94 0.5 WNW 11 13 6 7 1018.1 - 0.0
29/06:30pm 12.3 10.3 11.5 95 0.4 NW 13 15 7 8 1017.7 - 0.0
29/06:00pm 12.5 10.9 11.7 95 0.4 NW 11 11 6 6 1017.3 1017.5 0.0
29/05:30pm 13.7 12.2 12.0 89 0.9 WNW 11 13 6 7 1016.8 - 0.0
29/05:00pm 16.0 14.8 12.7 81 1.8 NW 11 17 6 9 1016.3 - 0.0
29/04:30pm 16.4 14.4 12.6 78 2.1 NNW 15 20 8 11 1016.2 - 0.0
29/04:00pm 16.9 15.6 12.6 76 2.4 NNW 11 13 6 7 1016.3 - 0.0
29/03:30pm 16.9 15.1 12.2 74 2.6 NW 13 17 7 9 1016.2 - 0.0
29/03:00pm 17.6 15.3 11.8 69 3.2 NW 15 19 8 10 1015.8 1016.0 0.0
29/02:30pm 17.4 15.1 11.9 70 3.0 WNW 15 19 8 10 1015.5 - 0.0
29/02:00pm 16.8 14.9 11.7 72 2.8 NW 13 19 7 10 1015.4 - 0.0
29/01:30pm 16.4 14.4 11.4 72 2.7 N 13 19 7 10 1015.1 - 0.0
29/01:00pm 16.1 13.6 11.1 72 2.7 NNW 15 20 8 11 1015.5 - 0.0
29/12:30pm 15.9 13.2 10.4 70 2.9 NNW 15 20 8 11 1016.2 - 0.0
29/12:00pm 15.2 12.3 10.9 75 2.3 NW 17 24 9 13 1016.8 1017.0 0.0
29/11:30am 15.0 11.8 11.1 77 2.1 NW 19 22 10 12 1016.9 - 0.0
29/11:00am 14.9 11.5 10.7 76 2.2 NW 19 24 10 13 1017.2 - 0.0
29/10:30am 14.1 10.2 10.7 80 1.8 NW 22 30 12 16 1017.5 - 0.0
29/10:00am 13.7 10.0 11.4 86 1.2 NW 22 30 12 16 1017.5 - 0.0
29/09:30am 12.7 9.6 11.6 93 0.6 NW 19 22 10 12 1017.3 - 0.0
29/09:00am 12.3 9.5 11.5 95 0.4 WNW 17 22 9 12 1017.2 1017.4 0.0
29/08:51am 11.8 8.6 11.2 96 0.3 NW 19 22 10 12 1017.3 - 0.0
29/08:30am 11.5 8.3 11.1 97 0.2 NW 19 28 10 15 1017.4 - 0.0
29/08:20am 11.2 7.3 10.8 97 0.2 NW 22 28 12 15 1017.4 - 0.0
29/08:00am 10.9 7.5 10.7 99 0.1 NW 19 24 10 13 1017.3 - 0.0
29/07:30am 10.5 7.8 10.3 99 0.1 NW 15 20 8 11 1016.9 - 0.0
29/07:00am 10.1 7.7 10.1 100 0.0 WNW 13 19 7 10 1016.6 - 0.0
29/06:30am 9.9 7.4 9.7 99 0.1 WNW 13 17 7 9 1016.3 - 0.0
29/06:00am 9.2 6.6 9.2 100 0.0 WNW 13 17 7 9 1016.1 1016.3 0.0
29/05:43am 9.0 5.9 8.8 99 0.1 NW 15 17 8 9 1015.8 - 0.0
29/05:30am 8.6 5.0 8.4 99 0.1 NW 17 20 9 11 1015.6 - 0.0
29/05:00am 7.1 3.5 6.9 99 0.1 NW 15 15 8 8 1015.6 - 0.0
29/04:30am 6.2 4.0 6.2 100 0.0 WNW 7 9 4 5 1015.6 - 0.0
29/04:00am 7.3 5.9 7.1 99 0.1 NW 4 7 2 4 1015.6 - 0.0
29/03:30am 7.0 5.0 7.0 100 0.0 NW 7 9 4 5 1015.7 - 0.0
29/03:00am 7.0 5.0 7.0 100 0.0 WNW 7 7 4 4 1015.7 1015.9 0.0
29/02:30am 7.7 5.8 7.5 99 0.1 NW 7 9 4 5 1015.7 - 0.0
29/02:06am 7.3 5.5 7.1 99 0.1 N 6 7 3 4 1015.7 - 0.0
29/02:00am 7.4 5.9 7.0 97 0.2 N 4 7 2 4 1015.8 - 0.0
29/01:30am 7.6 5.3 7.4 99 0.1 NNW 9 11 5 6 1015.8 - 0.0
29/01:00am 7.9 6.0 7.5 97 0.2 NW 7 9 4 5 1015.6 - 0.0
29/12:30am 8.7 6.2 8.3 97 0.2 NNW 11 15 6 8 1016.1 - 0.0
29/12:00am 9.6 6.9 8.8 95 0.4 NNW 13 15 7 8 1016.0 1016.2 0.0
 
Date/Time
WST
Temp
°C
App
Temp
°C
Dew
Point
Rel
Hum
%
Delta-T
°C
Wind Press
QNH
hPa
Press
MSL
hPa
Rain
since 9 am
mm
Dir
 
Spd
km/h
Gust
km/h
Spd
kts
Gust
kts
28/11:30pm 9.0 6.2 8.6 97 0.2 NNW 13 17 7 9 1016.1 - 0.0
28/11:00pm 7.7 5.0 7.3 97 0.2 NW 11 11 6 6 1016.1 - 0.0
28/10:30pm 8.0 6.1 7.4 96 0.3 NW 7 9 4 5 1016.3 - 0.0
28/10:00pm 8.9 5.7 8.3 96 0.3 WNW 15 17 8 9 1016.6 - 0.0
28/09:30pm 9.0 6.1 8.2 95 0.4 NW 13 15 7 8 1016.4 - 0.0
28/09:00pm 9.7 7.3 8.7 93 0.5 NW 11 15 6 8 1016.4 1016.6 0.0
28/08:30pm 10.1 7.8 8.9 92 0.6 NNW 11 17 6 9 1016.5 - 0.0
28/08:00pm 10.5 7.5 9.1 91 0.7 NNW 15 20 8 11 1016.5 - 0.0
28/07:30pm 9.9 7.5 8.7 92 0.6 NNW 11 15 6 8 1016.3 - 0.0
28/07:00pm 10.5 8.2 8.9 90 0.8 N 11 15 6 8 1015.8 - 0.0
28/06:30pm 11.3 9.1 9.3 87 1.0 N 11 15 6 8 1015.8 - 0.0
28/06:00pm 11.5 8.6 9.5 87 1.0 N 15 17 8 9 1015.5 1015.7 0.0
28/05:30pm 12.4 10.0 9.9 85 1.3 N 13 17 7 9 1015.5 - 0.0
28/05:00pm 12.8 9.6 9.9 82 1.5 N 17 20 9 11 1015.4 - 0.0
28/04:30pm 13.3 9.6 9.4 77 2.0 N 19 24 10 13 1015.4 - 0.0
28/04:00pm 13.8 10.0 8.9 72 2.5 NNW 19 30 10 16 1015.3 - 0.0
28/03:30pm 14.2 10.7 8.7 69 2.8 N 17 24 9 13 1015.2 - 0.0
28/03:00pm 14.8 11.1 7.8 63 3.5 N 17 22 9 12 1015.2 1015.4 0.0
28/02:30pm 15.1 10.4 6.2 55 4.3 NNW 20 26 11 14 1015.5 - 0.0
28/02:00pm 15.5 12.0 7.2 57 4.1 N 15 20 8 11 1016.0 - 0.0
28/01:30pm 15.7 12.4 6.5 54 4.5 N 13 20 7 11 1016.6 - 0.0
28/01:00pm 15.5 14.3 9.5 67 3.1 NNE 6 9 3 5 1017.0 - 0.0
28/12:30pm 15.4 14.7 8.7 64 3.4 ENE 2 7 1 4 1017.6 - 0.0
28/12:00pm 14.4 13.7 8.7 68 2.9 E 2 6 1 3 1018.3 1018.5 0.0
28/11:30am 13.8 12.2 8.6 71 2.6 ENE 7 9 4 5 1018.9 - 0.0
28/11:00am 13.5 11.9 8.7 73 2.4 ENE 7 9 4 5 1019.4 - 0.0
28/10:30am 13.5 12.0 8.3 71 2.6 NNW 6 7 3 4 1020.1 - 0.0
28/10:00am 12.8 9.8 7.7 71 2.5 NW 13 17 7 9 1020.6 - 0.0
28/09:30am 12.3 9.7 7.6 73 2.3 NW 11 15 6 8 1021.0 - 0.0
28/09:00am 11.9 10.2 7.6 75 2.1 NNW 6 9 3 5 1021.1 1021.3 0.0
28/08:30am 12.0 9.4 6.0 66 2.8 NNW 9 13 5 7 1021.5 - 0.0
28/08:00am 10.7 8.7 6.9 77 1.8 WNW 7 9 4 5 1021.7 - 0.0
28/07:30am 11.1 8.1 5.9 70 2.4 N 11 13 6 7 1021.7 - 0.0
28/07:00am 9.7 7.2 6.5 80 1.5 N 9 11 5 6 1021.7 - 0.0
28/06:30am 10.0 7.7 5.9 75 1.9 NE 7 7 4 4 1021.4 - 0.0
28/06:00am 9.3 6.4 6.5 83 1.3 NNE 11 13 6 7 1021.4 1021.6 0.0
28/05:30am 9.1 6.6 6.7 85 1.1 NE 9 11 5 6 1021.4 - 0.0
28/05:00am 8.8 6.4 6.9 88 0.9 NE 9 13 5 7 1021.8 - 0.0
28/04:30am 9.1 6.6 6.7 85 1.1 NE 9 11 5 6 1022.3 - 0.0
28/04:00am 8.5 6.1 7.0 90 0.7 NE 9 11 5 6 1022.4 - 0.0
28/03:30am 8.9 6.1 7.0 88 0.9 ENE 11 13 6 7 1022.6 - 0.0
28/03:00am 8.6 6.2 7.1 90 0.7 NE 9 11 5 6 1023.1 1023.3 0.0
28/02:30am 8.6 6.8 7.3 91 0.6 NNE 6 7 3 4 1023.4 - 0.0
28/02:00am 9.2 7.2 7.1 87 1.0 NE 7 9 4 5 1023.6 - 0.0
28/01:30am 9.4 7.0 7.1 85 1.1 NE 9 11 5 6 1024.0 - 0.0
28/01:00am 9.4 7.1 7.5 88 0.9 ENE 9 11 5 6 1024.0 - 0.0
28/12:30am 9.6 7.3 7.5 87 1.0 ENE 9 11 5 6 1024.1 - 0.0

Other Formats:

Comma delimited format used in spreadsheet applications
http://www.bom.gov.au/fwo/IDW60801/IDW60801.94802.axf

JavaScript Object Notation format (JSON) in row-major order
http://www.bom.gov.au/fwo/IDW60801/IDW60801.94802.json